Time;durP1;ratioP1;P1;durP2;ratioP2;P2;SDS_P1;SDS_P2;PMS_P1;PMS_P2;Temp;Humidity;BMP_temperature;BMP_pressure;BME280_temperature;BME280_humidity;BME280_pressure;Samples;Min_cycle;Max_cycle;Signal;HPM_P1;HPM_P2
2024/01/25 00:01:44;;;;;;;0.00;0.00;;;;;;;;;;5013141;28;20038;-73
2024/01/25 00:04:12;;;;;;;1.65;1.55;;;;;;;;;;5013329;28;20447;-74
2024/01/25 00:06:39;;;;;;;0.22;0.22;;;;;;;;;;5013465;28;20488;-73
2024/01/25 00:09:08;;;;;;;0.50;0.47;;;;;;;;;;5013101;28;20079;-73
2024/01/25 00:11:36;;;;;;;4.15;2.15;;;;;;;;;;5012903;28;20052;-73
2024/01/25 00:14:04;;;;;;;0.20;0.20;;;;;;;;;;5012950;28;20041;-74
2024/01/25 00:16:32;;;;;;;1.75;1.65;;;;;;;;;;5013013;28;20464;-74
2024/01/25 00:18:59;;;;;;;5.78;0.65;;;;;;;;;;5012943;28;20085;-74
2024/01/25 00:21:27;;;;;;;0.10;0.10;;;;;;;;;;5011443;28;20132;-73
2024/01/25 00:23:55;;;;;;;0.00;0.00;;;;;;;;;;5012868;28;20069;-73
2024/01/25 00:26:22;;;;;;;1.50;1.40;;;;;;;;;;5012824;28;20129;-74
2024/01/25 00:28:50;;;;;;;3.47;3.17;;;;;;;;;;5012654;28;20121;-73
2024/01/25 00:31:17;;;;;;;1.33;1.15;;;;;;;;;;5012768;28;20041;-74
2024/01/25 00:33:45;;;;;;;1.00;0.85;;;;;;;;;;5012710;28;20092;-73
2024/01/25 00:36:13;;;;;;;1.00;1.00;;;;;;;;;;5012595;28;20621;-73
2024/01/25 00:38:41;;;;;;;1.00;1.00;;;;;;;;;;5012660;28;20038;-73
2024/01/25 00:41:10;;;;;;;0.10;0.10;;;;;;;;;;5011518;28;20042;-74
2024/01/25 00:43:37;;;;;;;1.35;0.65;;;;;;;;;;5011448;28;20424;-73
2024/01/25 00:46:05;;;;;;;0.00;0.00;;;;;;;;;;5012689;28;20042;-73
2024/01/25 00:48:33;;;;;;;0.50;0.45;;;;;;;;;;5012677;28;20053;-74
2024/01/25 00:51:01;;;;;;;0.05;0.05;;;;;;;;;;5012570;28;20053;-73
2024/01/25 00:53:29;;;;;;;2.15;1.73;;;;;;;;;;5011018;28;20137;-74
2024/01/25 00:55:57;;;;;;;2.17;2.03;;;;;;;;;;5012393;28;20046;-73
2024/01/25 00:58:24;;;;;;;1.23;1.17;;;;;;;;;;5012606;28;20535;-73
2024/01/25 01:00:52;;;;;;;2.92;2.75;;;;;;;;;;5014255;28;20042;-74
2024/01/25 01:03:20;;;;;;;2.35;2.25;;;;;;;;;;5016178;28;20084;-73
2024/01/25 01:05:48;;;;;;;1.05;0.98;;;;;;;;;;5016263;28;20038;-73
2024/01/25 01:08:15;;;;;;;0.50;0.50;;;;;;;;;;5016231;28;20120;-74
2024/01/25 01:10:43;;;;;;;0.28;0.25;;;;;;;;;;5016237;28;20041;-73
2024/01/25 01:13:11;;;;;;;0.47;0.47;;;;;;;;;;5014963;28;20133;-73
2024/01/25 01:15:38;;;;;;;0.50;0.50;;;;;;;;;;4998765;28;20487;-73
2024/01/25 01:18:06;;;;;;;1.15;1.08;;;;;;;;;;5014748;28;20045;-73
2024/01/25 01:20:34;;;;;;;0.00;0.00;;;;;;;;;;5015956;28;20042;-70
2024/01/25 01:23:01;;;;;;;0.20;0.20;;;;;;;;;;5015822;28;20050;-73
2024/01/25 01:25:29;;;;;;;0.28;0.28;;;;;;;;;;5014753;28;20096;-73
2024/01/25 01:27:57;;;;;;;3.55;2.47;;;;;;;;;;5016022;28;20128;-71
2024/01/25 01:30:24;;;;;;;1.42;1.33;;;;;;;;;;5015811;28;20499;-71
2024/01/25 01:32:52;;;;;;;2.38;1.17;;;;;;;;;;5015865;28;20033;-72
2024/01/25 01:35:20;;;;;;;0.00;0.00;;;;;;;;;;5014636;28;20049;-72
2024/01/25 01:37:48;;;;;;;0.95;0.88;;;;;;;;;;5014647;28;20069;-72
2024/01/25 01:40:15;;;;;;;1.90;1.35;;;;;;;;;;5015667;28;20092;-72
2024/01/25 01:42:43;;;;;;;1.20;1.15;;;;;;;;;;5015707;28;20125;-71
2024/01/25 01:45:12;;;;;;;0.80;0.80;;;;;;;;;;5015698;28;20069;-73
2024/01/25 01:47:40;;;;;;;0.73;0.73;;;;;;;;;;5015611;28;20053;-72
2024/01/25 01:50:09;;;;;;;4.35;3.95;;;;;;;;;;5015451;28;20041;-72
2024/01/25 01:52:38;;;;;;;7.50;6.75;;;;;;;;;;5014239;28;20046;-72
2024/01/25 01:55:07;;;;;;;1.55;1.45;;;;;;;;;;5015492;28;20046;-71
2024/01/25 01:57:35;;;;;;;0.90;0.90;;;;;;;;;;5015363;28;20069;-72
2024/01/25 02:00:08;;;;;;;1.55;1.17;;;;;;;;;;5015318;28;20070;-71
2024/01/25 02:02:39;;;;;;;1.73;0.73;;;;;;;;;;5015513;28;20103;-71
2024/01/25 02:05:06;;;;;;;1.45;1.35;;;;;;;;;;5015231;28;20034;-71
2024/01/25 02:07:34;;;;;;;1.83;1.65;;;;;;;;;;5015259;28;20057;-72
2024/01/25 02:10:02;;;;;;;0.75;0.75;;;;;;;;;;5013739;28;20116;-72
2024/01/25 02:12:30;;;;;;;0.80;0.80;;;;;;;;;;5014560;28;20044;-71
2024/01/25 02:14:58;;;;;;;1.67;1.58;;;;;;;;;;5015067;28;20038;-71
2024/01/25 02:17:26;;;;;;;0.05;0.05;;;;;;;;;;5015038;28;20411;-71
2024/01/25 02:19:53;;;;;;;1.30;1.30;;;;;;;;;;5015227;28;20133;-71
2024/01/25 02:22:21;;;;;;;0.55;0.52;;;;;;;;;;5014815;28;20050;-71
2024/01/25 02:24:49;;;;;;;0.30;0.30;;;;;;;;;;5014930;28;20056;-71
2024/01/25 02:27:16;;;;;;;2.90;2.20;;;;;;;;;;5014797;28;20060;-71
2024/01/25 02:29:44;;;;;;;0.57;0.50;;;;;;;;;;5014734;28;20045;-72
2024/01/25 02:32:12;;;;;;;0.10;0.10;;;;;;;;;;5014863;28;20125;-71
2024/01/25 02:34:39;;;;;;;0.90;0.68;;;;;;;;;;5014916;28;20447;-71
2024/01/25 02:37:07;;;;;;;0.70;0.52;;;;;;;;;;5013662;28;20093;-71
2024/01/25 02:39:35;;;;;;;0.15;0.15;;;;;;;;;;5014664;28;20076;-71
2024/01/25 02:42:02;;;;;;;1.40;1.35;;;;;;;;;;4997026;28;20041;-72
2024/01/25 02:44:30;;;;;;;6.97;4.85;;;;;;;;;;5013313;28;20061;-71
2024/01/25 02:46:57;;;;;;;4.13;3.05;;;;;;;;;;5014438;28;20045;-71
2024/01/25 02:49:25;;;;;;;1.50;1.40;;;;;;;;;;5014440;28;20045;-71
2024/01/25 02:51:53;;;;;;;6.35;5.68;;;;;;;;;;5014355;28;20372;-71
2024/01/25 02:54:20;;;;;;;0.80;0.80;;;;;;;;;;5014356;28;20427;-71
2024/01/25 02:56:48;;;;;;;0.22;0.22;;;;;;;;;;5014276;28;20599;-71
2024/01/25 02:59:16;;;;;;;0.00;0.00;;;;;;;;;;5014333;28;20037;-71
2024/01/25 03:01:44;;;;;;;0.60;0.60;;;;;;;;;;5012791;28;20041;-71
2024/01/25 03:04:12;;;;;;;3.63;2.25;;;;;;;;;;5014117;28;20099;-71
2024/01/25 03:06:40;;;;;;;0.68;0.32;;;;;;;;;;5014200;28;20096;-71
2024/01/25 03:09:08;;;;;;;1.38;1.00;;;;;;;;;;5014294;28;20046;-71
2024/01/25 03:11:35;;;;;;;1.38;1.38;;;;;;;;;;5013978;28;20088;-71
2024/01/25 03:14:03;;;;;;;0.43;0.43;;;;;;;;;;5012748;28;20050;-70
2024/01/25 03:16:31;;;;;;;0.90;0.90;;;;;;;;;;5013999;28;20100;-71
2024/01/25 03:18:59;;;;;;;0.70;0.70;;;;;;;;;;5013939;28;20413;-71
2024/01/25 03:21:27;;;;;;;1.23;1.10;;;;;;;;;;5013659;28;20049;-70
2024/01/25 03:23:54;;;;;;;1.90;1.80;;;;;;;;;;5012874;28;20080;-71
2024/01/25 03:26:22;;;;;;;0.20;0.20;;;;;;;;;;5013841;28;20077;-72
2024/01/25 03:28:49;;;;;;;0.15;0.15;;;;;;;;;;5013500;28;20049;-72
2024/01/25 03:31:17;;;;;;;0.00;0.00;;;;;;;;;;5013617;28;20046;-72
2024/01/25 03:33:44;;;;;;;2.30;2.08;;;;;;;;;;5013594;28;20042;-70
2024/01/25 03:36:15;;;;;;;1.60;1.45;;;;;;;;;;5013582;28;20046;-69
2024/01/25 03:38:43;;;;;;;0.00;0.00;;;;;;;;;;5013505;28;20041;-72
2024/01/25 03:41:11;;;;;;;0.10;0.10;;;;;;;;;;5013489;28;20042;-72
2024/01/25 03:43:38;;;;;;;0.00;0.00;;;;;;;;;;5012335;28;20092;-72
2024/01/25 03:46:11;;;;;;;0.00;0.00;;;;;;;;;;5013509;28;20112;-72
2024/01/25 03:48:39;;;;;;;1.17;1.17;;;;;;;;;;5013501;28;20491;-72
2024/01/25 03:51:07;;;;;;;1.17;1.17;;;;;;;;;;5013123;28;20081;-72
2024/01/25 03:53:35;;;;;;;3.75;2.75;;;;;;;;;;5013383;28;20104;-71
2024/01/25 03:56:02;;;;;;;3.60;2.13;;;;;;;;;;5013209;28;20121;-71
2024/01/25 03:58:30;;;;;;;3.47;2.35;;;;;;;;;;5011995;28;20038;-72
2024/01/25 04:00:58;;;;;;;1.38;0.80;;;;;;;;;;5012222;28;20459;-71
2024/01/25 04:03:26;;;;;;;0.32;0.32;;;;;;;;;;5013143;28;20034;-71
2024/01/25 04:05:53;;;;;;;3.22;3.03;;;;;;;;;;5013120;28;20234;-71
2024/01/25 04:08:21;;;;;;;0.10;0.10;;;;;;;;;;5013030;28;20310;-71
2024/01/25 04:10:49;;;;;;;2.63;2.42;;;;;;;;;;5012893;28;20120;-71
2024/01/25 04:13:16;;;;;;;9.00;1.70;;;;;;;;;;5013037;28;20037;-71
2024/01/25 04:15:44;;;;;;;2.90;2.20;;;;;;;;;;5012962;28;20069;-69
2024/01/25 04:18:12;;;;;;;0.10;0.10;;;;;;;;;;5011766;28;20034;-70
2024/01/25 04:20:40;;;;;;;2.80;2.35;;;;;;;;;;5012855;28;20074;-70
2024/01/25 04:23:08;;;;;;;1.85;1.15;;;;;;;;;;5012684;28;20053;-70
2024/01/25 04:25:35;;;;;;;3.63;0.90;;;;;;;;;;5012376;28;20446;-69
2024/01/25 04:28:03;;;;;;;4.40;3.78;;;;;;;;;;5012814;28;20053;-70
2024/01/25 04:30:32;;;;;;;0.00;0.00;;;;;;;;;;5011395;28;20030;-70
2024/01/25 04:33:00;;;;;;;0.45;0.45;;;;;;;;;;5011696;28;20054;-70
2024/01/25 04:35:28;;;;;;;2.92;1.65;;;;;;;;;;5011206;28;20041;-70
2024/01/25 04:37:55;;;;;;;0.28;0.28;;;;;;;;;;5012608;28;20065;-70
2024/01/25 04:40:23;;;;;;;2.83;2.60;;;;;;;;;;5011614;28;20061;-70
2024/01/25 04:42:51;;;;;;;1.80;1.70;;;;;;;;;;5012681;28;20133;-70
2024/01/25 04:45:19;;;;;;;1.70;1.63;;;;;;;;;;5012578;28;20045;-70
2024/01/25 04:47:46;;;;;;;2.25;2.15;;;;;;;;;;5026960;28;20042;-69
2024/01/25 04:50:14;;;;;;;2.20;1.45;;;;;;;;;;5032144;28;20044;-69
2024/01/25 04:52:42;;;;;;;1.48;1.38;;;;;;;;;;5032246;28;20045;-69
2024/01/25 04:55:10;;;;;;;1.58;1.45;;;;;;;;;;5032142;28;20045;-69
2024/01/25 04:57:37;;;;;;;3.85;1.63;;;;;;;;;;5032200;28;20037;-69
2024/01/25 05:00:05;;;;;;;2.35;2.15;;;;;;;;;;5030939;28;20045;-68
2024/01/25 05:02:34;;;;;;;0.35;0.22;;;;;;;;;;5032160;28;20045;-69
2024/01/25 05:05:01;;;;;;;14.88;6.45;;;;;;;;;;5032231;28;20107;-69
2024/01/25 05:07:29;;;;;;;0.20;0.20;;;;;;;;;;5032150;28;20045;-69
2024/01/25 05:09:57;;;;;;;1.50;1.40;;;;;;;;;;5032319;28;20054;-69
2024/01/25 05:12:25;;;;;;;0.15;0.15;;;;;;;;;;5032047;28;20044;-70
2024/01/25 05:14:53;;;;;;;0.88;0.88;;;;;;;;;;5032216;28;20069;-70
2024/01/25 05:17:20;;;;;;;0.00;0.00;;;;;;;;;;5032110;28;20144;-69
2024/01/25 05:19:48;;;;;;;4.22;2.35;;;;;;;;;;5031915;28;20049;-69
2024/01/25 05:22:16;;;;;;;0.63;0.63;;;;;;;;;;5031656;28;20095;-69
2024/01/25 05:24:44;;;;;;;0.52;0.52;;;;;;;;;;5030705;28;20463;-69
2024/01/25 05:27:13;;;;;;;0.82;0.82;;;;;;;;;;5031888;28;20038;-69
2024/01/25 05:29:40;;;;;;;3.40;1.95;;;;;;;;;;5031896;28;20037;-70
2024/01/25 05:32:08;;;;;;;3.35;1.88;;;;;;;;;;5031798;28;20041;-70
2024/01/25 05:34:36;;;;;;;1.15;0.55;;;;;;;;;;5031907;28;20483;-70
2024/01/25 05:37:03;;;;;;;0.00;0.00;;;;;;;;;;5031873;28;20041;-70
2024/01/25 05:39:31;;;;;;;1.60;0.77;;;;;;;;;;5031850;28;20037;-70
2024/01/25 05:41:59;;;;;;;0.32;0.32;;;;;;;;;;5031825;28;20034;-70
2024/01/25 05:44:26;;;;;;;6.47;4.13;;;;;;;;;;5031748;28;20065;-70
2024/01/25 05:46:54;;;;;;;1.25;1.02;;;;;;;;;;5032796;28;20483;-70
2024/01/25 05:49:21;;;;;;;1.45;1.35;;;;;;;;;;5035252;28;20042;-70
2024/01/25 05:51:49;;;;;;;0.20;0.20;;;;;;;;;;5035286;28;20038;-72
2024/01/25 05:54:17;;;;;;;0.98;0.55;;;;;;;;;;5033145;28;20069;-72
2024/01/25 05:56:44;;;;;;;0.52;0.28;;;;;;;;;;5035029;28;20053;-72
2024/01/25 05:59:12;;;;;;;1.00;0.63;;;;;;;;;;5033730;28;20129;-72
2024/01/25 06:01:39;;;;;;;1.23;0.52;;;;;;;;;;5035447;28;20053;-72
2024/01/25 06:04:07;;;;;;;3.13;1.50;;;;;;;;;;5035077;28;20064;-72
2024/01/25 06:06:35;;;;;;;0.85;0.85;;;;;;;;;;5034641;28;20049;-71
2024/01/25 06:09:05;;;;;;;0.82;0.77;;;;;;;;;;5033475;28;20391;-71
2024/01/25 06:11:40;;;;;;;3.35;3.10;;;;;;;;;;5032616;28;20041;-71
2024/01/25 06:14:07;;;;;;;1.90;1.48;;;;;;;;;;5034694;28;20029;-69
2024/01/25 06:16:35;;;;;;;1.15;0.95;;;;;;;;;;5034386;28;20049;-69
2024/01/25 06:19:03;;;;;;;0.70;0.30;;;;;;;;;;5034422;28;20065;-69
2024/01/25 06:21:33;;;;;;;0.63;0.63;;;;;;;;;;5034752;28;20061;-69
2024/01/25 06:24:02;;;;;;;0.00;0.00;;;;;;;;;;5034436;28;20053;-70
2024/01/25 06:26:30;;;;;;;3.28;1.95;;;;;;;;;;5034773;28;20095;-69
2024/01/25 06:28:57;;;;;;;0.63;0.30;;;;;;;;;;5034581;28;20099;-70
2024/01/25 06:31:25;;;;;;;0.25;0.17;;;;;;;;;;5034729;28;20542;-69
2024/01/25 06:33:53;;;;;;;2.08;1.52;;;;;;;;;;5033364;28;20045;-70
2024/01/25 06:36:21;;;;;;;0.65;0.65;;;;;;;;;;5033309;28;20045;-69
2024/01/25 06:38:49;;;;;;;0.10;0.10;;;;;;;;;;5034686;28;20141;-70
2024/01/25 06:41:17;;;;;;;2.35;1.55;;;;;;;;;;5034311;28;20540;-69
2024/01/25 06:43:44;;;;;;;5.15;2.88;;;;;;;;;;5034344;28;20048;-69
2024/01/25 06:46:12;;;;;;;2.58;1.35;;;;;;;;;;5032805;28;20582;-69
2024/01/25 06:48:39;;;;;;;5.22;1.95;;;;;;;;;;5034201;28;20048;-69
2024/01/25 06:51:07;;;;;;;1.42;1.40;;;;;;;;;;5032796;28;20088;-69
2024/01/25 06:53:35;;;;;;;1.25;1.15;;;;;;;;;;5034084;28;20041;-70
2024/01/25 06:56:02;;;;;;;0.10;0.10;;;;;;;;;;5034014;28;20045;-69
2024/01/25 06:58:30;;;;;;;1.58;1.27;;;;;;;;;;5034014;28;20556;-71
2024/01/25 07:00:58;;;;;;;0.90;0.57;;;;;;;;;;5033876;28;20072;-70
2024/01/25 07:03:27;;;;;;;0.17;0.17;;;;;;;;;;5033969;28;20049;-71
2024/01/25 07:05:55;;;;;;;1.95;1.77;;;;;;;;;;5033847;28;20042;-69
2024/01/25 07:08:24;;;;;;;0.98;0.93;;;;;;;;;;5034052;28;20395;-69
2024/01/25 07:10:52;;;;;;;11.05;9.00;;;;;;;;;;5033586;28;20122;-69
2024/01/25 07:13:20;;;;;;;0.20;0.20;;;;;;;;;;5032360;28;20088;-69
2024/01/25 07:15:48;;;;;;;1.85;0.88;;;;;;;;;;5033876;28;20428;-68
2024/01/25 07:18:17;;;;;;;0.60;0.57;;;;;;;;;;5032028;28;20033;-69
2024/01/25 07:20:45;;;;;;;0.73;0.73;;;;;;;;;;5032358;28;20454;-68
2024/01/25 07:23:13;;;;;;;3.38;1.83;;;;;;;;;;5032299;28;20554;-68
2024/01/25 07:25:40;;;;;;;2.03;1.77;;;;;;;;;;5033689;28;20045;-69
2024/01/25 07:28:08;;;;;;;0.35;0.35;;;;;;;;;;5033470;28;20526;-69
2024/01/25 07:30:36;;;;;;;1.38;0.65;;;;;;;;;;5033389;28;20045;-69
2024/01/25 07:33:04;;;;;;;2.50;1.45;;;;;;;;;;5033265;28;20124;-69
2024/01/25 07:35:31;;;;;;;2.05;0.90;;;;;;;;;;5033172;28;20045;-69
2024/01/25 07:37:59;;;;;;;0.00;0.00;;;;;;;;;;5031740;28;20438;-69
2024/01/25 07:40:34;;;;;;;6.88;1.48;;;;;;;;;;5033167;28;20072;-69
2024/01/25 07:43:02;;;;;;;2.83;2.08;;;;;;;;;;5033046;28;20037;-69
2024/01/25 07:45:31;;;;;;;0.52;0.28;;;;;;;;;;5032012;28;20498;-69
2024/01/25 07:48:00;;;;;;;0.70;0.70;;;;;;;;;;5033145;28;20395;-69
2024/01/25 07:50:41;;;;;;;0.40;0.40;;;;;;;;;;5032085;28;20499;-69
2024/01/25 07:53:10;;;;;;;0.00;0.00;;;;;;;;;;5032809;28;20044;-69
2024/01/25 07:55:38;;;;;;;9.10;3.90;;;;;;;;;;5031575;28;20045;-69
2024/01/25 07:58:06;;;;;;;6.00;1.58;;;;;;;;;;5032917;28;20041;-69
2024/01/25 08:00:34;;;;;;;0.65;0.65;;;;;;;;;;5032867;28;20466;-69
2024/01/25 08:03:01;;;;;;;0.25;0.25;;;;;;;;;;5033019;28;20038;-69
2024/01/25 08:05:29;;;;;;;0.43;0.32;;;;;;;;;;5032262;28;20548;-69
2024/01/25 08:08:11;;;;;;;0.65;0.65;;;;;;;;;;5031270;28;20033;-70
2024/01/25 08:10:39;;;;;;;2.90;1.52;;;;;;;;;;5031163;28;20045;-69
2024/01/25 08:13:07;;;;;;;2.97;1.80;;;;;;;;;;5032055;28;20125;-70
2024/01/25 08:15:35;;;;;;;0.73;0.65;;;;;;;;;;5032158;28;20076;-70
2024/01/25 08:18:02;;;;;;;0.80;0.80;;;;;;;;;;5030572;28;20098;-70
2024/01/25 08:20:32;;;;;;;0.00;0.00;;;;;;;;;;5032042;28;20095;-70
2024/01/25 08:23:00;;;;;;;0.10;0.10;;;;;;;;;;5031950;28;20091;-70
2024/01/25 08:25:27;;;;;;;0.55;0.55;;;;;;;;;;5031848;28;20482;-70
2024/01/25 08:27:55;;;;;;;0.82;0.65;;;;;;;;;;5032555;28;20037;-72
2024/01/25 08:30:23;;;;;;;1.02;0.73;;;;;;;;;;5032469;28;20099;-75
2024/01/25 08:32:51;;;;;;;1.17;1.10;;;;;;;;;;5032477;28;20049;-69
2024/01/25 08:35:19;;;;;;;6.70;3.30;;;;;;;;;;5032559;28;20034;-69
2024/01/25 08:37:47;;;;;;;5.95;4.18;;;;;;;;;;5032391;28;20116;-69
2024/01/25 08:40:15;;;;;;;3.80;2.00;;;;;;;;;;5031937;28;20426;-68
2024/01/25 08:42:42;;;;;;;0.00;0.00;;;;;;;;;;5017419;28;20042;-68
2024/01/25 08:45:10;;;;;;;1.70;1.10;;;;;;;;;;5029845;28;20041;-69
2024/01/25 08:47:41;;;;;;;8.98;4.55;;;;;;;;;;5030964;28;20073;-69
2024/01/25 08:50:11;;;;;;;1.95;1.35;;;;;;;;;;5024676;28;20045;-69
2024/01/25 08:52:40;;;;;;;6.40;3.50;;;;;;;;;;5022440;28;20429;-69
2024/01/25 08:55:09;;;;;;;0.22;0.22;;;;;;;;;;5012790;28;20042;-69
2024/01/25 08:57:40;;;;;;;0.73;0.73;;;;;;;;;;5019537;28;20119;-69
2024/01/25 09:00:12;;;;;;;2.38;0.85;;;;;;;;;;5025963;28;20115;-69
2024/01/25 09:02:40;;;;;;;4.07;1.15;;;;;;;;;;5026736;28;20055;-69
2024/01/25 09:05:08;;;;;;;1.40;1.30;;;;;;;;;;5040590;28;20483;-69
2024/01/25 09:07:36;;;;;;;1.65;0.95;;;;;;;;;;5026784;28;20033;-69
2024/01/25 09:10:05;;;;;;;1.55;1.27;;;;;;;;;;5025254;28;20375;-69
2024/01/25 09:12:32;;;;;;;0.20;0.20;;;;;;;;;;5026495;28;20057;-69
2024/01/25 09:15:00;;;;;;;1.45;0.95;;;;;;;;;;5026651;28;20152;-69
2024/01/25 09:17:28;;;;;;;0.00;0.00;;;;;;;;;;5026884;28;20502;-69
2024/01/25 09:19:58;;;;;;;1.42;1.20;;;;;;;;;;5026551;28;20483;-69
2024/01/25 09:22:27;;;;;;;2.38;1.35;;;;;;;;;;5041083;28;20061;-69
2024/01/25 09:24:54;;;;;;;1.80;1.67;;;;;;;;;;5030207;28;20046;-69
2024/01/25 09:27:22;;;;;;;0.00;0.00;;;;;;;;;;5030368;28;20061;-69
2024/01/25 09:29:50;;;;;;;7.03;3.10;;;;;;;;;;5045190;28;20042;-68
2024/01/25 09:32:20;;;;;;;3.65;2.75;;;;;;;;;;5024801;28;20049;-69
2024/01/25 09:34:48;;;;;;;1.15;0.93;;;;;;;;;;5027949;28;20076;-69
2024/01/25 09:37:17;;;;;;;2.35;2.25;;;;;;;;;;5024296;28;20041;-69
2024/01/25 09:39:45;;;;;;;0.25;0.25;;;;;;;;;;5013733;28;20073;-69
2024/01/25 09:42:13;;;;;;;2.80;2.03;;;;;;;;;;5017864;28;20048;-69
2024/01/25 09:44:41;;;;;;;4.97;2.10;;;;;;;;;;5023200;28;20054;-69
2024/01/25 09:47:08;;;;;;;1.33;1.30;;;;;;;;;;5029871;28;20100;-69
2024/01/25 09:49:37;;;;;;;0.80;0.80;;;;;;;;;;5028370;28;20045;-68
2024/01/25 09:52:06;;;;;;;0.00;0.00;;;;;;;;;;5030035;28;20044;-69
2024/01/25 09:54:37;;;;;;;1.25;1.15;;;;;;;;;;5030100;28;20073;-69
2024/01/25 09:57:17;;;;;;;1.80;1.42;;;;;;;;;;5029880;28;20049;-69
2024/01/25 09:59:45;;;;;;;1.55;1.45;;;;;;;;;;5029757;28;20049;-69
2024/01/25 10:02:13;;;;;;;4.65;2.03;;;;;;;;;;5044707;28;20401;-69
2024/01/25 10:04:41;;;;;;;0.25;0.08;;;;;;;;;;5027001;28;20586;-69
2024/01/25 10:07:09;;;;;;;0.00;0.00;;;;;;;;;;5027561;28;20034;-69
2024/01/25 10:09:43;;;;;;;0.20;0.20;;;;;;;;;;5025145;28;20426;-69
2024/01/25 10:12:14;;;;;;;2.45;2.30;;;;;;;;;;5024340;28;20049;-70
2024/01/25 10:14:46;;;;;;;0.03;0.03;;;;;;;;;;5022056;28;20042;-71
2024/01/25 10:17:13;;;;;;;1.13;0.95;;;;;;;;;;5022112;28;20422;-72
2024/01/25 10:19:44;;;;;;;0.75;0.75;;;;;;;;;;5025176;28;20319;-72
2024/01/25 10:22:13;;;;;;;0.13;0.13;;;;;;;;;;5022172;28;20119;-71
2024/01/25 10:24:42;;;;;;;0.10;0.10;;;;;;;;;;5024765;28;20049;-71
2024/01/25 10:27:12;;;;;;;3.25;2.28;;;;;;;;;;5021212;28;20046;-71
2024/01/25 10:29:40;;;;;;;4.07;2.45;;;;;;;;;;5024568;28;20053;-71
2024/01/25 10:32:09;;;;;;;1.98;0.95;;;;;;;;;;5020557;28;20149;-71
2024/01/25 10:34:37;;;;;;;0.73;0.70;;;;;;;;;;5041762;28;20045;-71
2024/01/25 10:37:08;;;;;;;0.30;0.30;;;;;;;;;;5023315;28;20045;-71
2024/01/25 10:39:36;;;;;;;2.53;2.00;;;;;;;;;;5018721;28;20057;-71
2024/01/25 10:42:04;;;;;;;1.02;0.95;;;;;;;;;;5025370;28;20091;-71
2024/01/25 10:44:32;;;;;;;1.33;0.85;;;;;;;;;;5022414;28;20450;-71
2024/01/25 10:47:00;;;;;;;6.13;1.23;;;;;;;;;;5015799;28;20037;-71
2024/01/25 10:49:28;;;;;;;1.25;1.15;;;;;;;;;;5027463;28;20050;-71
2024/01/25 10:51:56;;;;;;;4.88;2.17;;;;;;;;;;5025798;28;20492;-72
2024/01/25 10:54:24;;;;;;;12.07;3.38;;;;;;;;;;5022612;28;20045;-72
2024/01/25 10:56:53;;;;;;;51.63;14.32;;;;;;;;;;5024811;28;20037;-72
2024/01/25 10:59:25;;;;;;;96.95;36.78;;;;;;;;;;5028647;28;20455;-72
2024/01/25 11:01:55;;;;;;;72.10;29.08;;;;;;;;;;5028514;28;20041;-72
2024/01/25 11:04:24;;;;;;;9.70;8.90;;;;;;;;;;5028598;28;20053;-72
2024/01/25 11:06:52;;;;;;;19.73;6.68;;;;;;;;;;5044257;28;20108;-72
2024/01/25 11:09:21;;;;;;;0.73;0.65;;;;;;;;;;5028343;28;20072;-71
2024/01/25 11:11:49;;;;;;;6.75;2.92;;;;;;;;;;5028497;28;20045;-72
2024/01/25 11:14:17;;;;;;;1.00;0.60;;;;;;;;;;5026870;28;20129;-72
2024/01/25 11:16:46;;;;;;;1.27;1.10;;;;;;;;;;5028022;28;20487;-71
2024/01/25 11:19:17;;;;;;;42.20;25.15;;;;;;;;;;5027311;28;20123;-73
2024/01/25 11:21:47;;;;;;;0.68;0.40;;;;;;;;;;5041507;28;20049;-74
2024/01/25 11:24:20;;;;;;;0.47;0.43;;;;;;;;;;5013182;28;20099;-72
2024/01/25 11:26:48;;;;;;;0.10;0.10;;;;;;;;;;5010779;28;20046;-73
2024/01/25 11:29:16;;;;;;;0.13;0.13;;;;;;;;;;5013399;28;20041;-72
2024/01/25 11:31:45;;;;;;;0.90;0.82;;;;;;;;;;5010838;28;20050;-72
2024/01/25 11:34:14;;;;;;;8.57;0.75;;;;;;;;;;5019923;28;20037;-73
2024/01/25 11:36:43;;;;;;;4.72;1.30;;;;;;;;;;5029418;28;20141;-72
2024/01/25 11:39:11;;;;;;;0.22;0.22;;;;;;;;;;5019043;28;20676;-72
2024/01/25 11:41:39;;;;;;;2.08;1.35;;;;;;;;;;5025728;28;20041;-73
2024/01/25 11:44:07;;;;;;;1.45;1.10;;;;;;;;;;5026184;28;20045;-73
2024/01/25 11:46:34;;;;;;;0.98;0.93;;;;;;;;;;5027410;28;20042;-71
2024/01/25 11:49:07;;;;;;;0.57;0.55;;;;;;;;;;5023278;28;20049;-73
2024/01/25 11:51:35;;;;;;;3.83;2.30;;;;;;;;;;5027038;28;20080;-72
2024/01/25 11:54:06;;;;;;;1.38;0.88;;;;;;;;;;5026693;28;20068;-72
2024/01/25 11:56:44;;;;;;;0.47;0.47;;;;;;;;;;5022592;28;20033;-72
2024/01/25 11:59:12;;;;;;;0.88;0.77;;;;;;;;;;5030837;28;20400;-70
2024/01/25 12:01:40;;;;;;;0.85;0.47;;;;;;;;;;5029433;28;20352;-73
2024/01/25 12:04:09;;;;;;;1.65;1.55;;;;;;;;;;5029204;28;20054;-73
2024/01/25 12:06:37;;;;;;;0.52;0.52;;;;;;;;;;5030638;28;20484;-71
2024/01/25 12:09:09;;;;;;;0.63;0.63;;;;;;;;;;5031264;28;20049;-72
2024/01/25 12:11:37;;;;;;;0.80;0.80;;;;;;;;;;5031282;28;20037;-73
2024/01/25 12:14:05;;;;;;;0.20;0.20;;;;;;;;;;5031122;28;20049;-73
2024/01/25 12:16:33;;;;;;;4.47;2.58;;;;;;;;;;5031180;28;20095;-74
2024/01/25 12:19:04;;;;;;;3.00;1.15;;;;;;;;;;5032402;28;20069;-73
2024/01/25 12:21:36;;;;;;;0.57;0.57;;;;;;;;;;5031811;28;20056;-71
2024/01/25 12:24:06;;;;;;;4.03;1.73;;;;;;;;;;5030512;28;20088;-69
2024/01/25 12:26:35;;;;;;;0.15;0.15;;;;;;;;;;5030454;28;20068;-73
2024/01/25 12:29:04;;;;;;;0.22;0.22;;;;;;;;;;5031097;28;20380;-72
2024/01/25 12:31:32;;;;;;;0.15;0.15;;;;;;;;;;5031877;28;20402;-73
2024/01/25 12:34:01;;;;;;;1.90;0.93;;;;;;;;;;5028602;28;20152;-75
2024/01/25 12:36:29;;;;;;;0.00;0.00;;;;;;;;;;5024620;28;20046;-72
2024/01/25 12:38:57;;;;;;;0.95;0.95;;;;;;;;;;5026105;28;20052;-72
2024/01/25 12:41:26;;;;;;;0.17;0.17;;;;;;;;;;5026337;28;20061;-72
2024/01/25 12:43:54;;;;;;;0.65;0.65;;;;;;;;;;5026283;28;20049;-72
2024/01/25 12:46:22;;;;;;;3.63;1.92;;;;;;;;;;5026598;28;20033;-72
2024/01/25 12:48:56;;;;;;;0.50;0.50;;;;;;;;;;5026141;28;20100;-73
2024/01/25 12:51:25;;;;;;;9.85;2.70;;;;;;;;;;5041795;28;20045;-73
2024/01/25 12:53:53;;;;;;;1.88;1.20;;;;;;;;;;5032784;28;20395;-72
2024/01/25 12:56:21;;;;;;;1.52;1.42;;;;;;;;;;5028085;28;20727;-72
2024/01/25 12:58:49;;;;;;;0.90;0.80;;;;;;;;;;5030454;28;20579;-73
2024/01/25 13:01:18;;;;;;;2.80;1.38;;;;;;;;;;5029800;28;20045;-74
2024/01/25 13:03:46;;;;;;;1.17;0.93;;;;;;;;;;5045986;28;20038;-73
2024/01/25 13:06:15;;;;;;;7.50;2.35;;;;;;;;;;5030576;28;20045;-73
2024/01/25 13:08:43;;;;;;;1.95;1.20;;;;;;;;;;5030776;28;20437;-74
2024/01/25 13:11:12;;;;;;;1.73;1.08;;;;;;;;;;5030478;28;20045;-73
2024/01/25 13:13:40;;;;;;;4.93;2.15;;;;;;;;;;5022523;28;20053;-72
2024/01/25 13:16:07;;;;;;;0.15;0.15;;;;;;;;;;5010870;28;20038;-73
2024/01/25 13:18:35;;;;;;;3.35;1.33;;;;;;;;;;5010738;28;20492;-73
2024/01/25 13:21:03;;;;;;;1.25;0.65;;;;;;;;;;5017367;28;20482;-73
2024/01/25 13:23:31;;;;;;;3.88;2.25;;;;;;;;;;5010399;28;20045;-74
2024/01/25 13:25:58;;;;;;;3.08;1.83;;;;;;;;;;5016956;28;20048;-73
2024/01/25 13:28:26;;;;;;;0.80;0.80;;;;;;;;;;5024994;28;20079;-74
2024/01/25 13:30:54;;;;;;;13.50;1.55;;;;;;;;;;5010670;28;20100;-73
2024/01/25 13:33:22;;;;;;;0.73;0.52;;;;;;;;;;5010511;28;20076;-73
2024/01/25 13:35:50;;;;;;;0.30;0.30;;;;;;;;;;5010284;28;20034;-73
2024/01/25 13:38:17;;;;;;;1.30;1.20;;;;;;;;;;5020115;28;20047;-74
2024/01/25 13:40:45;;;;;;;5.57;1.67;;;;;;;;;;5026130;28;20037;-74
2024/01/25 13:43:12;;;;;;;3.40;1.55;;;;;;;;;;5027458;28;20048;-73
2024/01/25 13:45:40;;;;;;;0.00;0.00;;;;;;;;;;5029060;28;20045;-74
2024/01/25 13:48:08;;;;;;;2.17;0.82;;;;;;;;;;5044988;28;20143;-73
2024/01/25 13:50:36;;;;;;;0.47;0.30;;;;;;;;;;5027456;28;20483;-74
2024/01/25 13:53:03;;;;;;;0.15;0.15;;;;;;;;;;5010093;28;20084;-76
2024/01/25 13:55:31;;;;;;;5.93;0.40;;;;;;;;;;5018618;28;20072;-74
2024/01/25 13:57:59;;;;;;;0.63;0.43;;;;;;;;;;5009982;28;20045;-76
2024/01/25 14:00:28;;;;;;;1.63;0.90;;;;;;;;;;5009675;28;20044;-74
2024/01/25 14:02:56;;;;;;;2.22;0.75;;;;;;;;;;5011734;28;20403;-74
2024/01/25 14:05:23;;;;;;;1.65;1.30;;;;;;;;;;5020196;28;20049;-74
2024/01/25 14:07:51;;;;;;;5.05;1.10;;;;;;;;;;5010522;28;20511;-75
2024/01/25 14:10:20;;;;;;;1.17;1.08;;;;;;;;;;5017075;28;20486;-75
2024/01/25 14:12:47;;;;;;;0.20;0.13;;;;;;;;;;5012151;28;20496;-74
2024/01/25 14:15:15;;;;;;;1.00;0.90;;;;;;;;;;5009915;28;20048;-74
2024/01/25 14:17:43;;;;;;;0.40;0.40;;;;;;;;;;5009823;28;20065;-74
2024/01/25 14:20:12;;;;;;;3.10;1.13;;;;;;;;;;5009403;28;20041;-73
2024/01/25 14:22:39;;;;;;;1.15;1.08;;;;;;;;;;5036544;28;20060;-76
2024/01/25 14:25:07;;;;;;;2.45;1.10;;;;;;;;;;5009111;28;20042;-75
2024/01/25 14:27:35;;;;;;;0.00;0.00;;;;;;;;;;5019104;28;20045;-75
2024/01/25 14:30:03;;;;;;;2.97;0.80;;;;;;;;;;5020791;28;20523;-74
2024/01/25 14:32:31;;;;;;;0.00;0.00;;;;;;;;;;5009577;28;20134;-75
2024/01/25 14:34:59;;;;;;;0.22;0.17;;;;;;;;;;5009120;28;20597;-73
2024/01/25 14:37:27;;;;;;;0.70;0.70;;;;;;;;;;5008732;28;20076;-75
2024/01/25 14:39:55;;;;;;;0.32;0.13;;;;;;;;;;5009125;28;20046;-73
2024/01/25 14:42:42;;;;;;;5.25;2.15;;;;;;;;;;5019288;28;20056;-73
2024/01/25 14:45:10;;;;;;;0.60;0.32;;;;;;;;;;5025726;28;20087;-74
2024/01/25 14:47:37;;;;;;;0.00;0.00;;;;;;;;;;5043598;28;20064;-74
2024/01/25 14:50:06;;;;;;;4.10;1.90;;;;;;;;;;5024169;28;20125;-72